首页
METAR-TAF:

METAR-TAF

机场 :

新山一國際機場

胡志明, 越南

纬度: 10-49N, 经度: 106-40E, 海拔: 19米

当前天气观测

该预报发布于28分钟前的07:30 UTC
风速4节,风向西北,在西之间变化
温度 27°C
湿度 94%
气压 1007 hPa
能見度: 7000
散云层高于1500英尺
少量云层高于1700英尺, 积雨云.
多云层高于4000英尺
雷暴, 小雨

METAR: VVTS 220730Z 32004KT 270V350 7000 -TSRA SCT015 FEW017CB BKN040 27/26 Q1007 TEMPO TL0800 5000 TSRA RMK CB OVER RWY

时间: 14:58 (07:58 UTC)

预报

该预报发布于2小时和21分钟前的05:37 UTC
预报有效从22日的 06点(UTC)到 23日的 12点(UTC)
风速10节,风向南转南东
能见度10公里或以上
散云层高于1700英尺
散云层高于4000英尺
短暂存在
从 22日的 08点(UTC)到 22日的 12点(UTC)
风速15节,风向东转东南,有时为30节阵风
能見度: 3000
多云层高于1500英尺
少量云层高于1700英尺, 积雨云.
多云层高于4000英尺
雷暴, 雨
成为
从 22日的 12点(UTC)到 22日的 13点(UTC)
风速3节,风向多变
成为
从 22日的 21点(UTC)到 22日的 22点(UTC)
能見度: 3000
轻雾
成为
从 23日的 01点(UTC)到 23日的 02点(UTC)
风速10节,风向南转南东
能见度10公里或以上

TAF: VVTS 220537Z 2206/2312 15010KT 9999 SCT017 SCT040 TEMPO 2208/2212 12015G30KT 3000 TSRA BKN015 FEW017CB BKN040 BECMG 2212/2213 VRB03KT BECMG 2221/2222 3000 BR BECMG 2301/2302 15010KT 9999 NSW

超过4000个机场的气象观测和天气预报(METAR&TAF报告)。

可查询的气象台以黄色和红色小点在地图上表示。

将鼠标移到小点上方,可查看气象台名称。

然后点击查看天气观测和预报。

如需切换地图:点击带黑十字的绿色按钮放大地图;点击带横线的绿色按钮缩小地图;或者点击绿色箭头查看邻近地区的地图。


METAR-TAF: